Time;durP1;ratioP1;P1;durP2;ratioP2;P2;SDS_P1;SDS_P2;PMS_P1;PMS_P2;Temp;Humidity;BMP_temperature;BMP_pressure;BME280_temperature;BME280_humidity;BME280_pressure;Samples;Min_cycle;Max_cycle;Signal;HPM_P1;HPM_P2
2022/10/28 00:01:05;;;;;;;16.48;8.35;;;14.70;99.90;;;;;;5040959;28;20042;-79
2022/10/28 00:03:30;;;;;;;13.88;7.85;;;14.70;99.90;;;;;;5047299;28;20120;-78
2022/10/28 00:06:08;;;;;;;16.17;7.60;;;14.70;99.90;;;;;;5026225;28;20112;-79
2022/10/28 00:08:34;;;;;;;14.82;8.60;;;14.70;99.90;;;;;;5050275;28;20036;-78
2022/10/28 00:11:11;;;;;;;14.32;8.00;;;14.70;99.90;;;;;;5029203;28;20029;-79
2022/10/28 00:13:37;;;;;;;15.30;8.82;;;14.70;99.90;;;;;;5046968;28;20052;-79
2022/10/28 00:16:12;;;;;;;16.67;8.07;;;14.80;99.90;;;;;;5048855;28;20037;-79
2022/10/28 00:18:39;;;;;;;14.10;8.57;;;14.70;99.90;;;;;;5050028;28;20048;-78
2022/10/28 00:21:07;;;;;;;14.85;8.52;;;14.70;99.90;;;;;;5048690;28;20036;-79
2022/10/28 00:23:34;;;;;;;13.98;8.18;;;14.80;99.90;;;;;;5049510;28;20053;-79
2022/10/28 00:26:08;;;;;;;15.05;8.35;;;14.80;99.90;;;;;;5042739;28;20060;-78
2022/10/28 00:28:34;;;;;;;14.93;8.40;;;14.80;99.90;;;;;;5047406;28;20029;-78
2022/10/28 00:31:04;;;;;;;15.50;8.18;;;14.80;99.90;;;;;;5049926;28;20086;-78
2022/10/28 00:33:30;;;;;;;14.68;8.38;;;14.80;99.90;;;;;;5050694;28;20043;-79
2022/10/28 00:35:55;;;;;;;14.55;8.80;;;14.80;99.90;;;;;;5044250;28;20037;-79
2022/10/28 00:38:21;;;;;;;18.35;8.88;;;14.80;99.90;;;;;;5044434;28;20112;-79
2022/10/28 00:40:46;;;;;;;15.93;8.65;;;14.80;99.90;;;;;;5044427;28;20044;-79
2022/10/28 00:43:12;;;;;;;16.67;8.13;;;14.80;99.90;;;;;;5049667;28;20041;-78
2022/10/28 00:45:38;;;;;;;15.23;8.13;;;14.80;99.90;;;;;;5046573;28;20403;-79
2022/10/28 00:48:04;;;;;;;14.02;8.40;;;14.70;99.90;;;;;;5045809;28;20029;-79
2022/10/28 00:50:45;;;;;;;11.55;8.00;;;14.70;99.90;;;;;;5044396;28;20037;-78
2022/10/28 00:53:27;;;;;;;13.10;8.27;;;14.70;99.90;;;;;;5032418;28;20041;-79
2022/10/28 00:55:54;;;;;;;16.35;8.18;;;14.80;99.90;;;;;;5039643;28;20051;-78
2022/10/28 00:58:23;;;;;;;14.52;8.05;;;14.80;99.90;;;;;;5050698;28;20079;-79
2022/10/28 01:00:48;;;;;;;18.33;8.80;;;14.80;99.90;;;;;;5049225;28;20049;-78
2022/10/28 01:03:15;;;;;;;15.93;8.48;;;14.90;99.90;;;;;;5050344;28;20563;-78
2022/10/28 01:05:42;;;;;;;13.10;8.50;;;14.90;99.90;;;;;;5050389;28;20062;-79
2022/10/28 01:08:08;;;;;;;14.45;8.45;;;14.90;99.90;;;;;;5049233;28;20398;-79
2022/10/28 01:11:01;;;;;;;12.90;8.43;;;14.90;99.90;;;;;;5052118;28;20029;-78
2022/10/28 01:13:39;;;;;;;13.80;7.90;;;14.90;99.90;;;;;;5047177;28;20437;-78
2022/10/28 01:16:31;;;;;;;14.98;8.30;;;14.90;99.90;;;;;;5053581;28;20661;-79
2022/10/28 01:19:31;;;;;;;15.77;8.13;;;14.90;99.90;;;;;;5052277;28;20032;-79
2022/10/28 01:22:19;;;;;;;15.10;8.35;;;14.90;99.90;;;;;;5052583;28;20037;-79
2022/10/28 01:25:00;;;;;;;16.92;8.02;;;14.90;99.90;;;;;;5046532;28;20046;-78
2022/10/28 01:28:02;;;;;;;22.10;8.68;;;14.80;99.90;;;;;;5047281;28;20116;-78
2022/10/28 01:30:55;;;;;;;17.80;8.52;;;14.80;99.90;;;;;;5026477;28;20073;-78
2022/10/28 01:33:46;;;;;;;14.05;8.02;;;14.80;99.90;;;;;;5051976;28;20084;-78
2022/10/28 01:36:26;;;;;;;15.10;7.75;;;14.70;99.90;;;;;;5027387;28;20395;-79
2022/10/28 01:39:08;;;;;;;15.65;8.07;;;14.70;99.90;;;;;;5046710;28;20045;-78
2022/10/28 01:41:56;;;;;;;13.73;8.07;;;14.60;99.90;;;;;;5050946;28;20041;-78
2022/10/28 01:44:47;;;;;;;14.52;8.13;;;14.60;99.90;;;;;;5048706;28;20064;-78
2022/10/28 01:47:23;;;;;;;15.52;8.05;;;14.50;99.90;;;;;;5031017;28;20052;-78
2022/10/28 01:50:06;;;;;;;11.20;7.80;;;14.40;99.90;;;;;;5050408;28;20041;-78
2022/10/28 01:52:33;;;;;;;17.48;8.85;;;14.40;99.90;;;;;;5051497;28;20033;-78
2022/10/28 01:55:09;;;;;;;15.30;8.95;;;14.30;99.90;;;;;;5050398;28;20494;-78
2022/10/28 01:57:37;;;;;;;16.08;9.35;;;14.40;99.90;;;;;;5035497;28;20051;-78
2022/10/28 02:00:04;;;;;;;13.98;8.90;;;14.30;99.90;;;;;;5031553;28;20383;-79
2022/10/28 02:02:33;;;;;;;13.13;8.80;;;14.30;99.90;;;;;;5050772;28;20044;-79
2022/10/28 02:05:40;;;;;;;18.17;9.07;;;14.30;99.90;;;;;;5049405;28;20529;-77
2022/10/28 02:08:32;;;;;;;15.13;8.88;;;14.30;99.90;;;;;;5044317;28;20130;-78
2022/10/28 02:11:12;;;;;;;13.27;8.80;;;14.30;99.90;;;;;;5041439;28;20048;-79
2022/10/28 02:14:06;;;;;;;15.23;10.00;;;14.30;99.90;;;;;;5049929;28;20052;-79
2022/10/28 02:16:48;;;;;;;15.90;9.50;;;14.20;99.90;;;;;;5048549;28;20514;-79
2022/10/28 02:19:37;;;;;;;17.35;8.90;;;14.20;99.90;;;;;;5043003;28;20040;-79
2022/10/28 02:22:31;;;;;;;16.08;9.23;;;14.10;99.90;;;;;;5041274;28;20041;-78
2022/10/28 02:25:23;;;;;;;17.23;8.87;;;14.00;99.90;;;;;;5042102;28;20077;-79
2022/10/28 02:28:05;;;;;;;14.57;8.75;;;14.00;99.90;;;;;;5045828;28;21397;-79
2022/10/28 02:30:49;;;;;;;15.30;8.98;;;13.90;99.90;;;;;;5050651;28;20104;-79
2022/10/28 02:33:18;;;;;;;16.80;9.40;;;13.90;99.90;;;;;;5041478;28;20072;-79
2022/10/28 02:35:51;;;;;;;15.13;8.93;;;13.90;99.90;;;;;;5034356;28;20037;-79
2022/10/28 02:38:31;;;;;;;21.55;10.20;;;13.80;99.90;;;;;;5052651;28;20371;-79
2022/10/28 02:41:00;;;;;;;14.85;9.60;;;13.80;99.90;;;;;;5048569;28;20406;-78
2022/10/28 02:43:29;;;;;;;16.02;10.20;;;13.80;99.90;;;;;;5047095;28;20048;-78
2022/10/28 02:45:58;;;;;;;17.45;9.13;;;13.70;99.90;;;;;;5040653;28;20494;-78
2022/10/28 02:48:32;;;;;;;19.83;10.15;;;13.70;99.90;;;;;;5046957;28;20040;-78
2022/10/28 02:51:21;;;;;;;15.48;9.50;;;13.70;99.90;;;;;;5049147;28;20028;-79
2022/10/28 02:53:59;;;;;;;14.95;9.27;;;13.60;99.90;;;;;;5048062;28;20048;-78
2022/10/28 02:56:27;;;;;;;14.55;8.73;;;13.60;99.90;;;;;;5051235;28;20399;-78
2022/10/28 02:58:53;;;;;;;14.50;9.30;;;13.60;99.90;;;;;;5049160;28;20418;-78
2022/10/28 03:01:18;;;;;;;16.98;10.15;;;13.50;99.90;;;;;;5047858;28;20041;-78
2022/10/28 03:03:44;;;;;;;16.15;9.63;;;13.50;99.90;;;;;;5032109;28;20048;-78
2022/10/28 03:06:09;;;;;;;12.48;9.30;;;13.50;99.90;;;;;;5050572;28;20037;-78
2022/10/28 03:08:35;;;;;;;14.90;9.10;;;13.40;99.90;;;;;;5032937;28;20120;-78
2022/10/28 03:11:00;;;;;;;13.70;9.07;;;13.40;99.90;;;;;;5041144;28;20029;-78
2022/10/28 03:13:26;;;;;;;11.43;8.25;;;13.30;99.90;;;;;;5044686;28;20037;-79
2022/10/28 03:15:51;;;;;;;13.88;7.68;;;13.30;99.90;;;;;;5050542;28;20082;-78
2022/10/28 03:18:17;;;;;;;13.18;8.10;;;13.20;99.90;;;;;;5050649;28;20040;-78
2022/10/28 03:20:42;;;;;;;13.30;7.78;;;13.10;99.90;;;;;;5044742;28;20044;-79
2022/10/28 03:23:08;;;;;;;11.60;7.93;;;13.10;99.90;;;;;;5049964;28;20414;-78
2022/10/28 03:25:33;;;;;;;11.73;7.75;;;13.00;99.90;;;;;;5047251;28;20079;-79
2022/10/28 03:27:59;;;;;;;12.55;7.32;;;13.00;99.90;;;;;;5021923;28;20044;-79
2022/10/28 03:30:24;;;;;;;10.88;8.05;;;12.90;99.90;;;;;;5046512;28;20110;-78
2022/10/28 03:32:50;;;;;;;12.45;8.10;;;13.00;99.90;;;;;;5051370;28;20029;-79
2022/10/28 03:35:15;;;;;;;13.00;8.23;;;12.90;99.90;;;;;;5048878;28;20029;-78
2022/10/28 03:37:42;;;;;;;12.40;8.27;;;12.80;99.90;;;;;;5047620;28;20037;-79
2022/10/28 03:40:08;;;;;;;15.73;8.73;;;12.80;99.90;;;;;;5047201;28;20075;-78
2022/10/28 03:42:34;;;;;;;11.32;8.27;;;12.80;99.90;;;;;;5043677;28;20522;-79
2022/10/28 03:44:59;;;;;;;12.05;8.35;;;12.80;99.90;;;;;;5048240;28;20033;-78
2022/10/28 03:47:25;;;;;;;11.77;7.60;;;12.80;99.90;;;;;;5050137;28;20037;-79
2022/10/28 03:49:50;;;;;;;9.77;7.30;;;12.70;99.90;;;;;;5049277;28;20047;-79
2022/10/28 03:52:16;;;;;;;10.00;7.85;;;12.70;99.90;;;;;;5044570;28;20037;-78
2022/10/28 03:54:41;;;;;;;9.75;7.30;;;12.60;99.90;;;;;;5043317;28;20499;-79
2022/10/28 03:57:07;;;;;;;11.50;7.57;;;12.60;99.90;;;;;;5048969;28;20119;-78
2022/10/28 03:59:32;;;;;;;14.05;7.47;;;12.60;99.90;;;;;;5043763;28;20033;-79
2022/10/28 04:01:58;;;;;;;9.75;6.90;;;12.60;99.90;;;;;;5048212;28;20123;-78
2022/10/28 04:04:24;;;;;;;12.82;8.07;;;12.60;99.90;;;;;;5050098;28;20163;-78
2022/10/28 04:06:49;;;;;;;13.80;9.10;;;12.60;99.90;;;;;;5048486;28;20509;-78
2022/10/28 04:09:15;;;;;;;12.45;7.93;;;12.60;99.90;;;;;;5046637;28;20037;-78
2022/10/28 04:11:40;;;;;;;14.82;9.45;;;12.60;99.90;;;;;;5049230;28;20445;-78
2022/10/28 04:14:06;;;;;;;18.05;10.18;;;12.50;99.90;;;;;;5042966;28;20041;-78
2022/10/28 04:16:31;;;;;;;13.98;9.50;;;12.50;99.90;;;;;;5036496;28;20036;-78
2022/10/28 04:18:57;;;;;;;15.32;9.55;;;12.50;99.90;;;;;;5049141;28;20045;-78
2022/10/28 04:21:22;;;;;;;13.63;8.73;;;12.50;99.90;;;;;;5031828;28;20114;-78
2022/10/28 04:23:48;;;;;;;18.67;10.02;;;12.50;99.90;;;;;;5049878;28;20037;-78
2022/10/28 04:26:14;;;;;;;14.50;9.25;;;12.60;99.90;;;;;;5048872;28;20029;-78
2022/10/28 04:28:39;;;;;;;17.23;10.45;;;12.60;99.90;;;;;;5049258;28;20053;-78
2022/10/28 04:31:05;;;;;;;23.08;11.82;;;12.60;99.90;;;;;;5048416;28;20029;-78
2022/10/28 04:33:31;;;;;;;20.75;10.95;;;12.60;99.90;;;;;;5041993;28;20044;-78
2022/10/28 04:35:56;;;;;;;18.33;10.88;;;12.60;99.90;;;;;;5042472;28;20049;-78
2022/10/28 04:38:22;;;;;;;19.20;11.68;;;12.60;99.90;;;;;;5049664;28;20044;-78
2022/10/28 04:40:48;;;;;;;17.10;11.63;;;12.60;99.90;;;;;;5051244;28;20056;-78
2022/10/28 04:43:14;;;;;;;18.80;11.52;;;12.60;99.90;;;;;;5034808;28;20059;-78
2022/10/28 04:45:40;;;;;;;18.60;11.48;;;12.60;99.90;;;;;;5049078;28;20049;-78
2022/10/28 04:48:05;;;;;;;16.13;11.02;;;12.70;99.90;;;;;;5051677;28;20047;-78
2022/10/28 04:50:31;;;;;;;18.63;11.68;;;12.60;99.90;;;;;;5052557;28;20055;-78
2022/10/28 04:52:57;;;;;;;16.88;12.13;;;12.70;99.90;;;;;;5052736;28;20498;-77
2022/10/28 04:55:22;;;;;;;18.73;12.00;;;12.70;99.90;;;;;;5051675;28;20086;-78
2022/10/28 04:57:59;;;;;;;17.48;11.20;;;12.70;99.90;;;;;;5048611;28;20422;-78
2022/10/28 05:00:26;;;;;;;21.45;12.85;;;12.70;99.90;;;;;;5052005;28;20466;-79
2022/10/28 05:02:52;;;;;;;21.65;12.73;;;12.70;99.90;;;;;;5036198;28;20024;-78
2022/10/28 05:05:18;;;;;;;20.15;13.52;;;12.70;99.90;;;;;;5050267;28;20071;-78
2022/10/28 05:07:44;;;;;;;27.40;14.38;;;12.80;99.90;;;;;;5053682;28;20040;-78
2022/10/28 05:10:11;;;;;;;23.05;14.25;;;12.80;99.90;;;;;;5052561;28;20033;-78
2022/10/28 05:12:39;;;;;;;19.85;13.10;;;12.80;99.90;;;;;;5048173;28;20111;-78
2022/10/28 05:15:06;;;;;;;20.23;13.82;;;12.80;99.90;;;;;;5052778;28;20119;-78
2022/10/28 05:17:31;;;;;;;24.95;13.68;;;12.80;99.90;;;;;;5053259;28;20544;-78
2022/10/28 05:19:57;;;;;;;24.65;14.20;;;12.80;99.90;;;;;;5036149;28;20041;-79
2022/10/28 05:22:22;;;;;;;25.60;14.75;;;12.80;99.90;;;;;;5046644;28;20041;-78
2022/10/28 05:24:48;;;;;;;23.23;13.30;;;12.80;99.90;;;;;;5051291;28;20069;-79
2022/10/28 05:27:14;;;;;;;21.60;13.52;;;12.80;99.90;;;;;;5053272;28;20151;-77
2022/10/28 05:29:40;;;;;;;22.80;13.73;;;12.80;99.90;;;;;;5047616;28;20040;-78
2022/10/28 05:32:05;;;;;;;25.65;14.30;;;12.80;99.90;;;;;;5035486;28;20033;-78
2022/10/28 05:34:31;;;;;;;24.17;14.20;;;12.80;99.90;;;;;;5050487;28;20068;-78
2022/10/28 05:36:57;;;;;;;22.73;13.82;;;12.80;99.90;;;;;;5049351;28;20066;-78
2022/10/28 05:39:22;;;;;;;23.80;14.10;;;12.80;99.90;;;;;;5049538;28;20087;-78
2022/10/28 05:41:48;;;;;;;23.13;13.88;;;12.80;99.90;;;;;;5043551;28;20388;-78
2022/10/28 05:44:13;;;;;;;24.15;14.05;;;12.80;99.90;;;;;;5049213;28;20037;-78
2022/10/28 05:46:39;;;;;;;24.40;13.57;;;12.80;99.90;;;;;;5048334;28;20618;-78
2022/10/28 05:49:04;;;;;;;22.23;13.68;;;12.80;99.90;;;;;;5041449;28;20086;-78
2022/10/28 05:51:30;;;;;;;22.95;12.80;;;12.80;99.90;;;;;;5046695;28;20038;-78
2022/10/28 05:53:55;;;;;;;21.85;13.15;;;12.80;99.90;;;;;;5049387;28;20067;-78
2022/10/28 05:56:22;;;;;;;22.27;12.85;;;12.80;99.90;;;;;;5047281;28;20060;-78
2022/10/28 05:58:48;;;;;;;20.42;13.07;;;12.80;99.90;;;;;;5045043;28;20430;-78
2022/10/28 06:01:14;;;;;;;23.92;13.82;;;12.80;99.90;;;;;;5048303;28;20535;-78
2022/10/28 06:03:39;;;;;;;22.35;13.05;;;12.80;99.90;;;;;;5049762;28;20060;-78
2022/10/28 06:06:05;;;;;;;22.63;14.45;;;12.80;99.90;;;;;;5042383;28;20034;-78
2022/10/28 06:08:30;;;;;;;24.08;13.77;;;12.90;99.90;;;;;;5050048;28;20041;-77
2022/10/28 06:10:56;;;;;;;21.40;12.88;;;12.90;99.90;;;;;;5044640;28;20036;-78
2022/10/28 06:13:23;;;;;;;21.27;13.35;;;12.90;99.90;;;;;;5052314;28;20033;-78
2022/10/28 06:15:56;;;;;;;22.90;13.95;;;12.90;99.90;;;;;;5052007;28;20049;-78
2022/10/28 06:18:22;;;;;;;19.27;13.20;;;12.90;99.90;;;;;;5052402;28;20049;-78
2022/10/28 06:20:56;;;;;;;26.38;13.65;;;12.80;99.90;;;;;;5044858;28;20471;-79
2022/10/28 06:23:22;;;;;;;21.55;13.00;;;12.80;99.90;;;;;;5051419;28;20049;-78
2022/10/28 06:25:48;;;;;;;25.40;13.40;;;12.80;99.90;;;;;;5051388;28;20072;-78
2022/10/28 06:28:14;;;;;;;20.90;13.18;;;12.80;99.90;;;;;;5047768;28;20029;-77
2022/10/28 06:30:39;;;;;;;24.83;13.65;;;12.80;99.90;;;;;;5047021;28;20033;-78
2022/10/28 06:33:05;;;;;;;22.70;13.00;;;12.80;99.90;;;;;;5043846;28;20068;-78
2022/10/28 06:35:30;;;;;;;21.27;12.75;;;12.90;99.90;;;;;;5050390;28;20367;-78
2022/10/28 06:37:56;;;;;;;22.77;13.23;;;12.80;99.90;;;;;;5034778;28;20044;-79
2022/10/28 06:40:23;;;;;;;23.17;12.45;;;12.90;99.90;;;;;;5051566;28;20090;-78
2022/10/28 06:42:55;;;;;;;26.63;13.63;;;12.90;99.90;;;;;;5051453;28;21323;-78
2022/10/28 06:45:20;;;;;;;21.70;12.80;;;12.90;99.90;;;;;;5030729;28;20041;-78
2022/10/28 06:47:46;;;;;;;22.73;12.60;;;12.90;99.90;;;;;;5046153;28;20047;-78
2022/10/28 06:50:11;;;;;;;21.98;12.93;;;13.00;99.90;;;;;;5035132;28;20080;-78
2022/10/28 06:52:37;;;;;;;25.42;12.55;;;13.00;99.90;;;;;;5032555;28;20556;-78
2022/10/28 06:55:03;;;;;;;26.95;12.95;;;13.00;99.90;;;;;;5032924;28;20041;-78
2022/10/28 06:57:29;;;;;;;19.15;12.40;;;13.00;99.90;;;;;;5034680;28;20132;-78
2022/10/28 06:59:55;;;;;;;22.48;12.73;;;13.00;99.90;;;;;;5047916;28;20431;-78
2022/10/28 07:02:20;;;;;;;20.45;11.95;;;13.10;99.90;;;;;;5047925;28;20125;-78
2022/10/28 07:04:46;;;;;;;24.77;13.13;;;13.10;99.90;;;;;;5050512;28;20051;-78
2022/10/28 07:07:11;;;;;;;22.95;12.75;;;13.10;99.90;;;;;;5046678;28;20044;-78
2022/10/28 07:09:38;;;;;;;21.52;12.38;;;13.20;99.90;;;;;;5048104;28;20521;-79
2022/10/28 07:12:05;;;;;;;22.75;11.75;;;13.20;99.90;;;;;;5045122;28;20033;-78
2022/10/28 07:14:33;;;;;;;18.98;12.23;;;13.30;99.90;;;;;;5049032;28;20048;-77
2022/10/28 07:16:59;;;;;;;21.17;11.57;;;13.30;99.90;;;;;;5050942;28;20049;-79
2022/10/28 07:19:24;;;;;;;20.98;11.90;;;13.40;99.90;;;;;;5049916;28;20037;-78
2022/10/28 07:21:50;;;;;;;25.10;11.70;;;13.50;99.90;;;;;;5024970;28;20036;-78
2022/10/28 07:24:15;;;;;;;24.95;12.40;;;13.50;99.90;;;;;;5047637;28;20407;-79
2022/10/28 07:26:41;;;;;;;19.65;11.45;;;13.60;99.90;;;;;;5043116;28;20123;-78
2022/10/28 07:29:07;;;;;;;25.17;12.10;;;13.60;99.90;;;;;;5048036;28;20033;-78
2022/10/28 07:31:32;;;;;;;25.05;12.48;;;13.70;99.90;;;;;;5027715;28;20136;-79
2022/10/28 07:33:57;;;;;;;24.08;12.75;;;13.80;99.90;;;;;;5044876;28;20045;-79
2022/10/28 07:36:23;;;;;;;22.88;11.73;;;13.90;99.90;;;;;;5044776;28;20033;-78
2022/10/28 07:38:50;;;;;;;27.17;11.30;;;14.00;99.90;;;;;;5045428;28;20049;-78
2022/10/28 07:41:18;;;;;;;18.13;10.98;;;14.00;99.90;;;;;;5022005;28;20059;-78
2022/10/28 07:43:43;;;;;;;22.67;11.93;;;14.10;99.90;;;;;;5047227;28;20071;-78
2022/10/28 07:46:09;;;;;;;25.85;11.30;;;14.20;99.90;;;;;;5050991;28;20406;-79
2022/10/28 07:48:36;;;;;;;18.73;10.63;;;14.20;99.90;;;;;;5046393;28;20030;-79
2022/10/28 07:51:04;;;;;;;20.08;10.38;;;14.30;99.90;;;;;;5026225;28;20087;-78
2022/10/28 07:53:30;;;;;;;18.80;10.38;;;14.40;99.90;;;;;;5050688;28;20067;-78
2022/10/28 07:55:57;;;;;;;17.75;9.65;;;14.50;99.90;;;;;;5049087;28;20055;-79
2022/10/28 07:58:24;;;;;;;18.50;10.02;;;14.50;99.90;;;;;;5048283;28;20562;-79
2022/10/28 08:00:50;;;;;;;18.55;9.90;;;14.60;99.90;;;;;;5049014;28;20118;-78
2022/10/28 08:03:15;;;;;;;17.85;9.95;;;14.60;99.90;;;;;;5050570;28;20120;-79
2022/10/28 08:05:41;;;;;;;18.08;9.13;;;14.70;99.90;;;;;;5050658;28;20514;-78
2022/10/28 08:08:06;;;;;;;17.23;9.43;;;14.70;99.90;;;;;;5034394;28;20491;-79
2022/10/28 08:10:32;;;;;;;18.85;9.50;;;14.80;99.90;;;;;;5049670;28;20036;-78
2022/10/28 08:12:59;;;;;;;16.73;8.65;;;14.90;99.90;;;;;;5049969;28;20033;-78
2022/10/28 08:15:25;;;;;;;18.35;9.05;;;15.00;99.90;;;;;;5049912;28;20403;-78
2022/10/28 08:17:51;;;;;;;20.13;8.35;;;15.10;99.90;;;;;;5043662;28;20044;-78
2022/10/28 08:20:17;;;;;;;17.13;8.23;;;15.20;99.90;;;;;;5048205;28;20037;-78
2022/10/28 08:22:42;;;;;;;16.45;8.05;;;15.20;99.90;;;;;;5048790;28;20037;-79
2022/10/28 08:25:08;;;;;;;20.45;8.20;;;15.30;99.90;;;;;;5049118;28;20898;-78
2022/10/28 08:27:34;;;;;;;17.00;8.38;;;15.30;99.90;;;;;;5021544;28;20076;-78
2022/10/28 08:29:59;;;;;;;20.08;8.50;;;15.40;99.90;;;;;;5039914;28;20041;-78
2022/10/28 08:32:25;;;;;;;15.60;7.65;;;15.50;99.90;;;;;;5046549;28;20037;-77
2022/10/28 08:34:50;;;;;;;16.60;7.43;;;15.60;99.90;;;;;;5049017;28;20511;-80
2022/10/28 08:37:16;;;;;;;15.65;7.70;;;15.70;99.90;;;;;;5049822;28;20045;-77
2022/10/28 08:39:42;;;;;;;16.95;8.30;;;15.80;99.90;;;;;;5049832;28;20095;-78
2022/10/28 08:42:32;;;;;;;15.60;7.63;;;15.90;99.90;;;;;;5047386;28;20517;-77
2022/10/28 08:45:16;;;;;;;13.68;7.70;;;15.90;99.90;;;;;;5049814;28;20053;-78
2022/10/28 08:48:04;;;;;;;17.08;6.68;;;16.00;99.90;;;;;;5044010;28;20433;-77
2022/10/28 08:50:38;;;;;;;19.48;7.28;;;16.00;99.90;;;;;;5046224;28;20490;-77
2022/10/28 08:53:16;;;;;;;16.20;6.90;;;16.10;99.90;;;;;;5051235;28;20029;-77
2022/10/28 08:55:45;;;;;;;15.23;6.85;;;16.20;99.90;;;;;;5045406;28;20037;-78
2022/10/28 08:58:23;;;;;;;16.10;7.30;;;16.30;99.90;;;;;;5048614;28;20091;-78
2022/10/28 09:00:52;;;;;;;17.33;7.07;;;16.30;99.90;;;;;;5050051;28;20052;-79
2022/10/28 09:03:24;;;;;;;16.10;6.90;;;16.40;99.90;;;;;;5041852;28;20048;-78
2022/10/28 09:06:01;;;;;;;17.45;6.65;;;16.40;99.90;;;;;;5047236;28;20770;-79
2022/10/28 09:08:30;;;;;;;15.07;6.40;;;16.40;99.90;;;;;;5037270;28;20041;-78
2022/10/28 09:11:15;;;;;;;11.32;6.00;;;16.50;99.90;;;;;;5033147;28;20047;-79
2022/10/28 09:13:49;;;;;;;15.45;5.90;;;16.50;99.90;;;;;;5037254;28;20036;-79
2022/10/28 09:16:17;;;;;;;;;;;16.60;99.90;;;;;;5033010;28;20071;-78
2022/10/28 09:18:55;;;;;;;13.55;6.20;;;16.50;99.90;;;;;;5048744;28;20301;-79
2022/10/28 09:21:32;;;;;;;15.55;5.88;;;16.60;99.90;;;;;;5050607;28;20620;-79
2022/10/28 09:24:04;;;;;;;13.80;5.47;;;16.70;99.90;;;;;;5054152;28;20041;-78
2022/10/28 09:26:51;;;;;;;13.05;5.63;;;16.70;99.90;;;;;;5036739;28;20072;-78
2022/10/28 09:29:27;;;;;;;13.70;5.97;;;16.70;99.90;;;;;;5054138;28;20112;-79
2022/10/28 09:32:06;;;;;;;16.70;5.70;;;16.80;99.90;;;;;;5053271;28;20041;-79
2022/10/28 09:34:39;;;;;;;12.27;5.78;;;16.80;99.90;;;;;;5049952;28;20037;-79
2022/10/28 09:37:24;;;;;;;10.00;5.37;;;16.80;99.90;;;;;;5050175;28;20048;-78
2022/10/28 09:39:58;;;;;;;13.45;5.78;;;16.80;99.90;;;;;;5051704;28;20287;-78
2022/10/28 09:42:53;;;;;;;9.65;5.32;;;16.90;99.90;;;;;;5052980;28;20048;-78
2022/10/28 09:45:20;;;;;;;;;;;16.90;99.90;;;;;;5030405;28;20057;-78
2022/10/28 09:48:00;;;;;;;14.95;5.22;;;16.90;99.90;;;;;;5050554;28;19916;-78
2022/10/28 09:50:29;;;;;;;10.32;5.40;;;16.90;99.90;;;;;;5047282;28;20048;-78
2022/10/28 09:53:10;;;;;;;10.00;5.30;;;17.00;99.90;;;;;;5047062;28;20040;-78
2022/10/28 09:55:36;;;;;;;12.23;5.35;;;17.00;99.90;;;;;;5050163;28;20123;-78
2022/10/28 09:58:04;;;;;;;12.07;5.55;;;17.00;99.90;;;;;;5050675;28;20210;-78
2022/10/28 10:00:30;;;;;;;15.75;6.25;;;17.10;99.90;;;;;;5044928;28;20064;-77
2022/10/28 10:02:57;;;;;;;12.18;5.38;;;17.10;99.90;;;;;;5051568;28;20037;-78
2022/10/28 10:05:23;;;;;;;13.43;4.97;;;17.20;99.90;;;;;;5052519;28;20041;-78
2022/10/28 10:08:13;;;;;;;15.18;6.00;;;17.20;99.90;;;;;;5050454;28;20060;-78
2022/10/28 10:10:46;;;;;;;11.35;5.57;;;17.30;99.90;;;;;;5050786;28;20120;-79
2022/10/28 10:13:15;;;;;;;11.82;5.18;;;17.30;99.90;;;;;;5048882;28;20032;-77
2022/10/28 10:15:52;;;;;;;10.90;5.53;;;17.40;99.90;;;;;;5053108;28;20041;-78
2022/10/28 10:18:23;;;;;;;12.82;5.57;;;17.40;99.90;;;;;;5053269;28;20119;-79
2022/10/28 10:20:57;;;;;;;12.60;6.13;;;17.50;99.90;;;;;;5052790;28;20115;-78
2022/10/28 10:23:29;;;;;;;14.43;5.32;;;17.50;99.90;;;;;;5050348;28;20033;-78
2022/10/28 10:26:11;;;;;;;13.57;5.30;;;17.60;99.90;;;;;;5033741;28;20048;-77
2022/10/28 10:28:46;;;;;;;12.32;4.95;;;17.70;99.90;;;;;;5051451;28;20445;-79
2022/10/28 10:31:18;;;;;;;14.73;6.28;;;17.70;99.90;;;;;;5052292;28;20033;-79
2022/10/28 10:33:49;;;;;;;10.88;4.88;;;17.70;99.90;;;;;;5052321;28;20103;-78
2022/10/28 10:36:17;;;;;;;12.35;5.40;;;17.80;99.90;;;;;;5035219;28;20045;-78
2022/10/28 10:38:57;;;;;;;15.90;5.30;;;17.80;99.90;;;;;;5053434;28;20056;-79
2022/10/28 10:41:54;;;;;;;13.27;5.15;;;17.90;99.90;;;;;;5052211;28;20047;-78
2022/10/28 10:44:20;;;;;;;10.52;5.45;;;17.90;99.90;;;;;;5040943;28;20478;-78
2022/10/28 10:46:46;;;;;;;13.68;5.47;;;18.00;99.90;;;;;;5053051;28;20044;-77
2022/10/28 10:49:14;;;;;;;14.02;5.20;;;18.10;99.90;;;;;;5038858;28;20107;-79
2022/10/28 10:52:01;;;;;;;13.65;5.10;;;18.20;99.90;;;;;;5029740;28;20033;-77
2022/10/28 10:54:30;;;;;;;11.80;5.63;;;18.20;99.90;;;;;;5051909;28;20440;-79
2022/10/28 10:57:18;;;;;;;14.35;5.53;;;18.20;99.90;;;;;;5053263;28;20045;-81
2022/10/28 10:59:49;;;;;;;13.70;6.03;;;18.20;99.90;;;;;;5040859;28;20375;-80
2022/10/28 11:02:38;;;;;;;14.90;5.20;;;18.20;99.90;;;;;;5050747;28;20140;-79
2022/10/28 11:05:07;;;;;;;13.98;4.82;;;18.30;99.90;;;;;;5053671;28;20498;-80
2022/10/28 11:07:34;;;;;;;11.27;5.30;;;18.30;99.90;;;;;;5036679;28;20375;-79
2022/10/28 11:10:00;;;;;;;12.95;5.40;;;18.30;99.90;;;;;;5053577;28;20045;-81
2022/10/28 11:12:34;;;;;;;11.23;4.88;;;18.30;99.90;;;;;;5052312;28;20032;-80
2022/10/28 11:15:15;;;;;;;;;;;18.40;99.90;;;;;;5051049;28;20041;-80
2022/10/28 11:18:03;;;;;;;16.48;6.18;;;18.50;99.90;;;;;;5036715;28;20350;-79
2022/10/28 11:20:49;;;;;;;14.70;5.55;;;18.60;99.90;;;;;;5053321;28;20056;-78
2022/10/28 11:23:24;;;;;;;14.05;5.07;;;18.60;99.90;;;;;;5053609;28;20048;-79
2022/10/28 11:25:53;;;;;;;15.27;5.05;;;18.70;99.90;;;;;;5036212;28;20179;-80
2022/10/28 11:28:32;;;;;;;12.38;5.78;;;18.80;99.90;;;;;;5036090;28;20044;-78
2022/10/28 11:31:27;;;;;;;11.68;5.13;;;18.90;99.90;;;;;;5050949;28;20044;-80
2022/10/28 11:34:22;;;;;;;16.63;5.03;;;19.10;99.90;;;;;;5049972;28;20059;-79
2022/10/28 11:37:20;;;;;;;14.00;4.90;;;19.30;99.90;;;;;;5050991;28;20147;-79
2022/10/28 11:40:04;;;;;;;18.15;5.20;;;19.40;99.90;;;;;;5050443;28;20049;-79
2022/10/28 11:42:45;;;;;;;;;;;19.40;99.90;;;;;;5050381;28;20120;-78
2022/10/28 11:45:23;;;;;;;15.25;5.25;;;19.40;99.90;;;;;;5049179;28;19921;-78
2022/10/28 11:48:26;;;;;;;13.75;5.10;;;19.60;99.90;;;;;;5049925;28;20044;-78
2022/10/28 11:51:00;;;;;;;15.10;5.40;;;19.60;99.90;;;;;;5027382;28;20049;-78
2022/10/28 11:53:42;;;;;;;16.02;5.20;;;19.70;99.90;;;;;;5050485;28;20563;-78
2022/10/28 11:56:33;;;;;;;12.82;5.00;;;19.80;99.90;;;;;;5049088;28;20530;-78
2022/10/28 11:59:08;;;;;;;11.60;4.50;;;19.90;99.90;;;;;;5051173;28;20112;-79
2022/10/28 12:01:55;;;;;;;10.73;4.50;;;19.90;99.90;;;;;;5050817;28;20032;-79
2022/10/28 12:04:50;;;;;;;14.68;5.00;;;20.00;99.90;;;;;;5050105;28;20510;-79
2022/10/28 12:07:33;;;;;;;10.85;4.15;;;20.10;99.90;;;;;;5034306;28;20032;-78
2022/10/28 12:10:21;;;;;;;10.50;4.65;;;20.10;99.90;;;;;;5051317;28;20047;-78
2022/10/28 12:13:13;;;;;;;14.60;4.55;;;20.00;99.90;;;;;;5051821;28;20043;-77
2022/10/28 12:16:05;;;;;;;13.00;5.05;;;20.00;99.90;;;;;;5050907;28;20037;-77
2022/10/28 12:18:44;;;;;;;10.55;4.80;;;19.90;99.90;;;;;;5051142;28;20025;-79
2022/10/28 12:21:23;;;;;;;9.15;4.82;;;19.90;99.90;;;;;;5052082;28;20037;-79
2022/10/28 12:23:51;;;;;;;13.98;5.10;;;19.80;99.90;;;;;;5052181;28;20045;-79
2022/10/28 12:26:19;;;;;;;12.85;5.30;;;19.80;99.90;;;;;;5052196;28;20036;-79
2022/10/28 12:28:51;;;;;;;15.38;4.88;;;19.70;99.90;;;;;;5051588;28;20033;-77
2022/10/28 12:31:24;;;;;;;14.15;4.78;;;19.60;99.90;;;;;;5051243;28;20659;-79
2022/10/28 12:33:55;;;;;;;11.60;5.15;;;19.60;99.90;;;;;;5051399;28;20037;-79
2022/10/28 12:36:38;;;;;;;17.92;6.55;;;19.60;99.90;;;;;;5051272;28;20409;-78
2022/10/28 12:39:28;;;;;;;17.80;5.00;;;19.50;99.90;;;;;;5052902;28;20188;-77
2022/10/28 12:42:04;;;;;;;10.25;4.78;;;19.50;99.90;;;;;;5054212;28;20499;-78
2022/10/28 12:44:32;;;;;;;22.50;5.25;;;19.50;99.90;;;;;;5051159;28;20049;-79
2022/10/28 12:47:09;;;;;;;16.80;4.82;;;19.50;99.90;;;;;;5050310;28;20514;-80
2022/10/28 12:49:52;;;;;;;12.10;4.63;;;19.50;99.90;;;;;;5032214;28;20430;-78
2022/10/28 12:52:40;;;;;;;13.27;4.78;;;19.50;99.90;;;;;;5035032;28;20479;-78
2022/10/28 12:55:12;;;;;;;14.23;4.97;;;19.50;99.90;;;;;;5052735;28;20469;-79
2022/10/28 12:57:41;;;;;;;13.18;4.85;;;19.50;99.90;;;;;;5035544;28;20131;-78
2022/10/28 13:00:22;;;;;;;17.00;5.97;;;19.50;99.90;;;;;;5048288;28;20115;-78